Time,TemperatureF,DewpointF,PressureIn,WindDirection,WindDirectionDegrees,WindSpeedMPH,WindSpeedGustMPH,Humidity,HourlyPrecipIn,Conditions,Clouds,dailyrainin,SoftwareType,DateUTC
2013-01-09 00:09:00,37.9,36.1,30.38,SSW,202,3.0,3.0,93,0.00,,,0.00,Wunderground v.1.15,2013-01-09 05:09:00,
2013-01-09 00:19:00,38.0,36.4,30.38,WSW,237,4.0,4.0,94,0.00,,,0.00,Wunderground v.1.15,2013-01-09 05:19:00,
2013-01-09 00:29:00,38.2,36.6,30.38,West,266,4.0,5.0,94,0.00,,,0.00,Wunderground v.1.15,2013-01-09 05:29:00,
2013-01-09 00:40:00,38.3,36.7,30.39,West,269,4.0,4.0,94,0.00,,,0.00,Wunderground v.1.15,2013-01-09 05:40:00,
2013-01-09 00:49:00,38.3,36.5,30.39,West,262,3.0,3.0,93,0.00,,,0.00,Wunderground v.1.15,2013-01-09 05:49:00,
2013-01-09 00:59:00,38.3,36.7,30.39,West,267,4.0,4.0,94,0.00,,,0.00,Wunderground v.1.15,2013-01-09 05:59:00,
2013-01-09 01:09:00,38.3,36.5,30.39,West,263,4.0,4.0,93,0.00,,,0.00,Wunderground v.1.15,2013-01-09 06:09:00,
2013-01-09 01:20:00,38.0,36.2,30.39,WSW,240,3.0,5.0,93,0.00,,,0.00,Wunderground v.1.15,2013-01-09 06:20:00,
2013-01-09 01:29:00,38.0,36.4,30.39,WNW,287,3.0,3.0,94,0.00,,,0.00,Wunderground v.1.15,2013-01-09 06:29:00,
2013-01-09 01:39:00,37.9,36.3,30.40,WSW,250,2.0,3.0,94,0.00,,,0.00,Wunderground v.1.15,2013-01-09 06:39:00,
2013-01-09 01:49:00,37.3,35.5,30.40,WSW,243,2.0,2.0,93,0.00,,,0.00,Wunderground v.1.15,2013-01-09 06:49:00,
2013-01-09 01:59:00,36.8,35.0,30.40,WSW,243,2.0,2.0,93,0.00,,,0.00,Wunderground v.1.15,2013-01-09 06:59:00,
2013-01-09 02:09:00,36.9,35.3,30.40,West,261,3.0,4.0,94,0.00,,,0.00,Wunderground v.1.15,2013-01-09 07:09:00,
2013-01-09 02:19:00,37.3,35.7,30.39,West,271,2.0,2.0,94,0.00,,,0.00,Wunderground v.1.15,2013-01-09 07:19:00,
2013-01-09 02:29:00,36.8,35.2,30.39,West,271,1.0,1.0,94,0.00,,,0.00,Wunderground v.1.15,2013-01-09 07:29:00,
2013-01-09 02:39:00,36.2,34.6,30.39,West,271,1.0,1.0,94,0.00,,,0.00,Wunderground v.1.15,2013-01-09 07:39:00,
2013-01-09 02:49:00,35.6,34.0,30.39,West,271,0.0,1.0,94,0.00,,,0.00,Wunderground v.1.15,2013-01-09 07:49:00,
2013-01-09 03:00:00,35.3,33.7,30.39,West,271,1.0,1.0,94,0.00,,,0.00,Wunderground v.1.15,2013-01-09 08:00:00,
2013-01-09 03:09:00,35.1,33.5,30.39,West,271,1.0,1.0,94,0.00,,,0.00,Wunderground v.1.15,2013-01-09 08:09:00,
2013-01-09 03:19:00,34.9,33.3,30.40,West,271,1.0,1.0,94,0.00,,,0.00,Wunderground v.1.15,2013-01-09 08:19:00,
2013-01-09 03:29:00,35.2,33.9,30.40,SW,225,2.0,2.0,95,0.00,,,0.00,Wunderground v.1.15,2013-01-09 08:29:00,
2013-01-09 03:39:00,35.6,34.3,30.40,SW,227,2.0,2.0,95,0.00,,,0.00,Wunderground v.1.15,2013-01-09 08:39:00,
2013-01-09 03:49:00,35.9,34.6,30.40,WSW,237,2.0,3.0,95,0.00,,,0.00,Wunderground v.1.15,2013-01-09 08:49:00,
2013-01-09 03:59:00,35.8,34.5,30.40,SW,235,3.0,3.0,95,0.00,,,0.00,Wunderground v.1.15,2013-01-09 08:59:00,
2013-01-09 04:10:00,35.7,34.4,30.40,SW,231,2.0,2.0,95,0.00,,,0.00,Wunderground v.1.15,2013-01-09 09:10:00,
2013-01-09 04:19:00,35.4,34.1,30.39,SW,231,1.0,1.0,95,0.00,,,0.00,Wunderground v.1.15,2013-01-09 09:19:00,
2013-01-09 04:29:00,35.2,33.9,30.38,SW,218,1.0,2.0,95,0.00,,,0.00,Wunderground v.1.15,2013-01-09 09:29:00,
2013-01-09 04:39:00,35.1,33.8,30.39,SW,218,2.0,2.0,95,0.00,,,0.00,Wunderground v.1.15,2013-01-09 09:39:00,
2013-01-09 04:50:00,35.1,33.8,30.38,SW,218,2.0,2.0,95,0.00,,,0.00,Wunderground v.1.15,2013-01-09 09:50:00,
2013-01-09 05:09:00,34.8,33.5,30.38,SW,218,1.0,1.0,95,0.00,,,0.00,Wunderground v.1.15,2013-01-09 10:09:00,
2013-01-09 05:19:00,34.7,33.4,30.38,SW,218,2.0,2.0,95,0.00,,,0.00,Wunderground v.1.15,2013-01-09 10:19:00,
2013-01-09 05:29:00,34.8,33.8,30.38,SW,218,1.0,1.0,96,0.00,,,0.00,Wunderground v.1.15,2013-01-09 10:29:00,
2013-01-09 05:40:00,34.6,33.3,30.38,SW,218,1.0,2.0,95,0.00,,,0.00,Wunderground v.1.15,2013-01-09 10:40:00,
2013-01-09 05:49:00,34.3,33.0,30.38,SW,218,1.0,2.0,95,0.00,,,0.00,Wunderground v.1.15,2013-01-09 10:49:00,
2013-01-09 05:59:00,34.0,32.7,30.38,SW,218,1.0,1.0,95,0.00,,,0.00,Wunderground v.1.15,2013-01-09 10:59:00,
2013-01-09 06:09:00,33.9,32.6,30.39,SW,218,1.0,2.0,95,0.00,,,0.00,Wunderground v.1.15,2013-01-09 11:09:00,
2013-01-09 06:20:00,33.8,32.8,30.39,SW,218,2.0,2.0,96,0.00,,,0.00,Wunderground v.1.15,2013-01-09 11:20:00,
2013-01-09 06:30:00,33.6,32.6,30.40,SW,218,1.0,1.0,96,0.00,,,0.00,Wunderground v.1.15,2013-01-09 11:30:00,
2013-01-09 06:39:00,33.5,32.2,30.40,SW,218,1.0,2.0,95,0.00,,,0.00,Wunderground v.1.15,2013-01-09 11:39:00,
2013-01-09 06:49:00,33.5,32.5,30.40,SW,218,1.0,2.0,96,0.00,,,0.00,Wunderground v.1.15,2013-01-09 11:49:00,
2013-01-09 06:59:00,33.6,32.6,30.41,SW,218,1.0,2.0,96,0.00,,,0.00,Wunderground v.1.15,2013-01-09 11:59:00,
2013-01-09 07:09:00,33.5,32.5,30.41,SW,218,1.0,1.0,96,0.00,,,0.00,Wunderground v.1.15,2013-01-09 12:09:00,
2013-01-09 07:19:00,33.4,32.4,30.42,SW,218,1.0,2.0,96,0.00,,,0.00,Wunderground v.1.15,2013-01-09 12:19:00,
2013-01-09 07:29:00,33.5,32.5,30.41,SW,218,1.0,1.0,96,0.00,,,0.00,Wunderground v.1.15,2013-01-09 12:29:00,
2013-01-09 07:39:00,33.3,32.3,30.41,SW,218,1.0,1.0,96,0.00,,,0.00,Wunderground v.1.15,2013-01-09 12:39:00,
2013-01-09 07:49:00,33.0,32.0,30.41,SW,218,0.0,0.0,96,0.00,,,0.00,Wunderground v.1.15,2013-01-09 12:49:00,
2013-01-09 08:00:00,33.4,32.4,30.41,SW,218,0.0,0.0,96,0.00,,,0.00,Wunderground v.1.15,2013-01-09 13:00:00,
2013-01-09 08:09:00,33.7,32.7,30.40,SW,218,0.0,0.0,96,0.00,,,0.00,Wunderground v.1.15,2013-01-09 13:09:00,
2013-01-09 08:20:00,34.5,33.5,30.41,SW,218,0.0,0.0,96,0.00,,,0.00,Wunderground v.1.15,2013-01-09 13:20:00,
2013-01-09 08:29:00,35.2,34.2,30.41,SW,218,1.0,1.0,96,0.00,,,0.00,Wunderground v.1.15,2013-01-09 13:29:00,
2013-01-09 08:40:00,36.2,35.4,30.41,SW,218,0.0,0.0,97,0.00,,,0.00,Wunderground v.1.15,2013-01-09 13:40:00,
2013-01-09 08:49:00,36.9,36.1,30.41,SW,218,0.0,0.0,97,0.00,,,0.00,Wunderground v.1.15,2013-01-09 13:49:00,
2013-01-09 08:59:00,37.3,36.5,30.41,SW,218,0.0,0.0,97,0.00,,,0.00,Wunderground v.1.15,2013-01-09 13:59:00,
2013-01-09 09:09:00,37.7,36.9,30.41,SW,218,0.0,0.0,97,0.00,,,0.00,Wunderground v.1.15,2013-01-09 14:09:00,
2013-01-09 09:19:00,38.1,37.3,30.41,SW,218,1.0,1.0,97,0.00,,,0.00,Wunderground v.1.15,2013-01-09 14:19:00,
2013-01-09 09:29:00,38.4,37.6,30.41,SW,218,0.0,0.0,97,0.00,,,0.00,Wunderground v.1.15,2013-01-09 14:29:00,
2013-01-09 09:39:00,38.9,38.1,30.40,SW,218,0.0,1.0,97,0.00,,,0.00,Wunderground v.1.15,2013-01-09 14:39:00,
2013-01-09 09:49:00,39.5,38.7,30.40,SSE,166,1.0,2.0,97,0.00,,,0.00,Wunderground v.1.15,2013-01-09 14:49:00,
2013-01-09 09:59:00,39.7,38.7,30.40,SW,214,1.0,3.0,96,0.00,,,0.00,Wunderground v.1.15,2013-01-09 14:59:00,
2013-01-09 10:09:00,40.0,39.0,30.39,South,178,1.0,1.0,96,0.00,,,0.00,Wunderground v.1.15,2013-01-09 15:09:00,
2013-01-09 10:19:00,40.4,39.4,30.39,SSE,151,1.0,1.0,96,0.00,,,0.00,Wunderground v.1.15,2013-01-09 15:19:00,
2013-01-09 10:29:00,40.8,39.7,30.39,SSE,164,1.0,1.0,96,0.00,,,0.00,Wunderground v.1.15,2013-01-09 15:29:00,
2013-01-09 10:39:00,41.4,40.3,30.38,SSE,160,1.0,1.0,96,0.00,,,0.00,Wunderground v.1.15,2013-01-09 15:39:00,
2013-01-09 10:49:00,41.8,40.7,30.37,SW,224,2.0,3.0,96,0.00,,,0.00,Wunderground v.1.15,2013-01-09 15:49:00,
2013-01-09 10:59:00,42.2,40.9,30.36,South,178,3.0,4.0,95,0.00,,,0.00,Wunderground v.1.15,2013-01-09 15:59:00,
2013-01-09 11:09:00,42.7,41.1,30.36,SSE,150,2.0,2.0,94,0.00,,,0.00,Wunderground v.1.15,2013-01-09 16:09:00,
2013-01-09 11:19:00,43.0,41.1,30.35,SSE,159,2.0,2.0,93,0.00,,,0.00,Wunderground v.1.15,2013-01-09 16:19:00,
2013-01-09 11:30:00,43.3,41.1,30.34,South,173,3.0,3.0,92,0.00,,,0.00,Wunderground v.1.15,2013-01-09 16:30:00,
2013-01-09 11:39:00,43.6,40.9,30.33,South,173,3.0,3.0,90,0.00,,,0.00,Wunderground v.1.15,2013-01-09 16:39:00,
2013-01-09 11:49:00,43.8,40.8,30.33,SW,227,3.0,3.0,89,0.00,,,0.00,Wunderground v.1.15,2013-01-09 16:49:00,
2013-01-09 11:59:00,44.1,40.8,30.32,South,176,3.0,3.0,88,0.00,,,0.00,Wunderground v.1.15,2013-01-09 16:59:00,
2013-01-09 12:10:00,44.1,40.5,30.31,SE,145,3.0,3.0,87,0.00,,,0.00,Wunderground v.1.15,2013-01-09 17:10:00,
2013-01-09 12:19:00,44.2,40.3,30.29,SSW,205,3.0,3.0,86,0.00,,,0.00,Wunderground v.1.15,2013-01-09 17:19:00,
2013-01-09 12:29:00,44.2,40.0,30.27,SSW,197,2.0,4.0,85,0.00,,,0.00,Wunderground v.1.15,2013-01-09 17:29:00,
2013-01-09 12:39:00,44.2,40.0,30.26,South,188,3.0,3.0,85,0.00,,,0.00,Wunderground v.1.15,2013-01-09 17:39:00,
2013-01-09 12:50:00,44.3,39.8,30.25,SW,215,4.0,4.0,84,0.00,,,0.00,Wunderground v.1.15,2013-01-09 17:50:00,
2013-01-09 13:00:00,44.3,39.8,30.24,SW,214,4.0,6.0,84,0.00,,,0.00,Wunderground v.1.15,2013-01-09 18:00:00,
2013-01-09 13:09:00,44.7,40.2,30.24,SSE,158,4.0,6.0,84,0.00,,,0.00,Wunderground v.1.15,2013-01-09 18:09:00,
2013-01-09 13:19:00,45.2,40.7,30.24,SW,231,4.0,5.0,84,0.00,,,0.00,Wunderground v.1.15,2013-01-09 18:19:00,
2013-01-09 13:29:00,45.4,40.8,30.24,SSE,154,4.0,8.0,84,0.00,,,0.00,Wunderground v.1.15,2013-01-09 18:29:00,
2013-01-09 13:40:00,45.4,41.2,30.23,SSW,204,4.0,4.0,85,0.00,,,0.00,Wunderground v.1.15,2013-01-09 18:40:00,
2013-01-09 13:49:00,45.4,41.2,30.24,SSW,210,4.0,5.0,85,0.00,,,0.00,Wunderground v.1.15,2013-01-09 18:49:00,
2013-01-09 13:59:00,45.3,41.1,30.23,SSE,147,3.0,4.0,85,0.00,,,0.00,Wunderground v.1.15,2013-01-09 18:59:00,
2013-01-09 14:09:00,45.4,41.2,30.24,SW,214,2.0,3.0,85,0.00,,,0.00,Wunderground v.1.15,2013-01-09 19:09:00,
2013-01-09 14:20:00,45.6,41.4,30.25,WSW,238,4.0,4.0,85,0.00,,,0.00,Wunderground v.1.15,2013-01-09 19:20:00,
2013-01-09 14:29:00,45.7,41.4,30.26,WSW,248,2.0,2.0,85,0.00,,,0.00,Wunderground v.1.15,2013-01-09 19:29:00,
2013-01-09 14:39:00,45.3,41.1,30.25,SW,227,3.0,3.0,85,0.00,,,0.00,Wunderground v.1.15,2013-01-09 19:39:00,
2013-01-09 14:49:00,44.9,41.0,30.24,WSW,243,3.0,3.0,86,0.00,,,0.00,Wunderground v.1.15,2013-01-09 19:49:00,
2013-01-09 14:59:00,44.8,41.2,30.23,South,169,2.0,3.0,87,0.00,,,0.00,Wunderground v.1.15,2013-01-09 19:59:00,
2013-01-09 15:09:00,44.7,41.1,30.22,South,171,2.0,2.0,87,0.00,,,0.00,Wunderground v.1.15,2013-01-09 20:09:00,
2013-01-09 15:19:00,44.4,40.8,30.20,South,178,2.0,3.0,87,0.00,,,0.00,Wunderground v.1.15,2013-01-09 20:19:00,
2013-01-09 15:29:00,44.2,40.9,30.20,SSE,166,3.0,3.0,88,0.00,,,0.00,Wunderground v.1.15,2013-01-09 20:29:00,
2013-01-09 15:40:00,44.1,40.8,30.19,SSE,148,3.0,3.0,88,0.00,,,0.00,Wunderground v.1.15,2013-01-09 20:40:00,
2013-01-09 15:49:00,44.1,40.8,30.20,SSW,193,3.0,3.0,88,0.00,,,0.00,Wunderground v.1.15,2013-01-09 20:49:00,
2013-01-09 15:59:00,43.9,40.9,30.19,SE,140,3.0,3.0,89,0.00,,,0.00,Wunderground v.1.15,2013-01-09 20:59:00,
2013-01-09 16:09:00,43.8,40.8,30.19,SW,223,4.0,4.0,89,0.00,,,0.00,Wunderground v.1.15,2013-01-09 21:09:00,
2013-01-09 16:19:00,43.8,40.8,30.17,SW,235,4.0,4.0,89,0.00,,,0.00,Wunderground v.1.15,2013-01-09 21:19:00,
2013-01-09 16:30:00,43.9,40.9,30.15,SSW,195,4.0,5.0,89,0.00,,,0.00,Wunderground v.1.15,2013-01-09 21:30:00,
2013-01-09 16:39:00,44.2,40.9,30.14,South,169,4.0,5.0,88,0.00,,,0.00,Wunderground v.1.15,2013-01-09 21:39:00,
2013-01-09 16:49:00,44.6,41.3,30.13,SSE,159,4.0,4.0,88,0.00,,,0.00,Wunderground v.1.15,2013-01-09 21:49:00,
2013-01-09 16:59:00,44.9,41.6,30.12,South,189,4.0,5.0,88,0.00,,,0.00,Wunderground v.1.15,2013-01-09 21:59:00,
2013-01-09 17:09:00,45.3,42.0,30.09,ESE,123,5.0,5.0,88,0.00,,,0.00,Wunderground v.1.15,2013-01-09 22:09:00,
2013-01-09 17:19:00,46.1,42.1,30.06,South,169,7.0,7.0,86,0.00,,,0.00,Wunderground v.1.15,2013-01-09 22:19:00,
2013-01-09 17:29:00,46.5,42.5,30.06,ESE,118,7.0,7.0,86,0.00,,,0.00,Wunderground v.1.15,2013-01-09 22:29:00,
2013-01-09 17:39:00,46.8,42.5,30.06,SSE,166,7.0,7.0,85,0.00,,,0.00,Wunderground v.1.15,2013-01-09 22:39:00,
2013-01-09 17:49:00,46.8,41.9,30.11,WSW,240,7.0,8.0,83,0.00,,,0.00,Wunderground v.1.15,2013-01-09 22:49:00,
2013-01-09 17:59:00,46.1,41.8,30.09,WSW,243,7.0,11.0,85,0.00,,,0.00,Wunderground v.1.15,2013-01-09 22:59:00,
2013-01-09 18:10:00,45.5,41.6,30.09,West,264,6.0,6.0,86,0.00,,,0.00,Wunderground v.1.15,2013-01-09 23:10:00,
2013-01-09 18:19:00,45.1,41.2,30.09,South,179,6.0,6.0,86,0.00,,,0.00,Wunderground v.1.15,2013-01-09 23:19:00,
2013-01-09 18:29:00,45.0,41.4,30.09,SW,227,8.0,11.0,87,0.00,,,0.00,Wunderground v.1.15,2013-01-09 23:29:00,
2013-01-09 18:39:00,44.9,41.3,30.09,SW,225,8.0,8.0,87,0.00,,,0.00,Wunderground v.1.15,2013-01-09 23:39:00,
2013-01-09 18:50:00,44.6,41.3,30.09,WSW,243,7.0,7.0,88,0.00,,,0.00,Wunderground v.1.15,2013-01-09 23:50:00,
2013-01-09 18:59:00,44.5,41.5,30.08,West,259,7.0,7.0,89,0.00,,,0.00,Wunderground v.1.15,2013-01-09 23:59:00,
2013-01-09 19:09:00,44.4,41.7,30.09,WSW,238,7.0,7.0,90,0.00,,,0.00,Wunderground v.1.15,2013-01-10 00:09:00,
2013-01-09 19:19:00,44.5,42.0,30.09,West,276,9.0,9.0,91,0.00,,,0.00,Wunderground v.1.15,2013-01-10 00:19:00,
2013-01-09 19:29:00,44.8,42.3,30.09,SW,236,8.0,8.0,91,0.00,,,0.00,Wunderground v.1.15,2013-01-10 00:29:00,
2013-01-09 19:39:00,44.7,42.2,30.08,SW,227,9.0,9.0,91,0.00,,,0.00,Wunderground v.1.15,2013-01-10 00:39:00,
2013-01-09 19:49:00,44.4,42.2,30.08,SW,218,9.0,9.0,92,0.00,,,0.00,Wunderground v.1.15,2013-01-10 00:49:00,
2013-01-09 19:59:00,44.0,41.8,30.09,WSW,255,8.0,8.0,92,0.00,,,0.00,Wunderground v.1.15,2013-01-10 00:59:00,
2013-01-09 20:09:00,43.4,41.2,30.09,West,273,9.0,11.0,92,0.00,,,0.00,Wunderground v.1.15,2013-01-10 01:09:00,
2013-01-09 20:20:00,43.2,41.0,30.08,WSW,252,11.0,11.0,92,0.00,,,0.00,Wunderground v.1.15,2013-01-10 01:20:00,
2013-01-09 20:29:00,43.0,40.8,30.08,WSW,250,10.0,10.0,92,0.00,,,0.00,Wunderground v.1.15,2013-01-10 01:29:00,
2013-01-09 20:39:00,42.8,40.4,30.07,West,277,10.0,10.0,91,0.00,,,0.00,Wunderground v.1.15,2013-01-10 01:39:00,
2013-01-09 20:49:00,43.0,40.6,30.07,SW,233,12.0,12.0,91,0.00,,,0.00,Wunderground v.1.15,2013-01-10 01:49:00,
2013-01-09 20:59:00,43.3,40.6,30.07,WSW,258,12.0,16.0,90,0.00,,,0.00,Wunderground v.1.15,2013-01-10 01:59:00,
2013-01-09 21:09:00,43.5,40.5,30.07,SW,225,11.0,12.0,89,0.00,,,0.00,Wunderground v.1.15,2013-01-10 02:09:00,
2013-01-09 21:19:00,43.3,40.0,30.08,WSW,241,9.0,9.0,88,0.00,,,0.00,Wunderground v.1.15,2013-01-10 02:19:00,
2013-01-09 21:29:00,42.8,39.8,30.08,SW,235,9.0,9.0,89,0.00,,,0.00,Wunderground v.1.15,2013-01-10 02:29:00,
2013-01-09 21:39:00,42.4,39.4,30.08,SW,228,7.0,7.0,89,0.00,,,0.00,Wunderground v.1.15,2013-01-10 02:39:00,
2013-01-09 21:50:00,42.3,39.3,30.08,WSW,243,8.0,8.0,89,0.00,,,0.00,Wunderground v.1.15,2013-01-10 02:50:00,
2013-01-09 21:59:00,42.7,39.1,30.08,WNW,282,7.0,9.0,87,0.00,,,0.00,Wunderground v.1.15,2013-01-10 02:59:00,
2013-01-09 22:09:00,42.9,39.0,30.08,West,278,8.0,15.0,86,0.00,,,0.00,Wunderground v.1.15,2013-01-10 03:09:00,
2013-01-09 22:19:00,43.3,39.1,30.09,WNW,297,9.0,9.0,85,0.00,,,0.00,Wunderground v.1.15,2013-01-10 03:19:00,
2013-01-09 22:29:00,43.0,38.5,30.09,WSW,250,7.0,7.0,84,0.00,,,0.00,Wunderground v.1.15,2013-01-10 03:29:00,
2013-01-09 22:40:00,43.0,38.5,30.08,West,281,8.0,12.0,84,0.00,,,0.00,Wunderground v.1.15,2013-01-10 03:40:00,
2013-01-09 22:49:00,42.8,38.3,30.08,West,274,8.0,10.0,84,0.00,,,0.00,Wunderground v.1.15,2013-01-10 03:49:00,
2013-01-09 22:59:00,43.0,38.2,30.08,SW,235,8.0,8.0,83,0.00,,,0.00,Wunderground v.1.15,2013-01-10 03:59:00,
2013-01-09 23:09:00,43.3,37.9,30.09,WNW,296,9.0,11.0,81,0.00,,,0.00,Wunderground v.1.15,2013-01-10 04:09:00,
2013-01-09 23:20:00,43.5,37.7,30.09,West,261,9.0,9.0,80,0.00,,,0.00,Wunderground v.1.15,2013-01-10 04:20:00,
2013-01-09 23:29:00,43.7,37.6,30.10,West,270,10.0,10.0,79,0.00,,,0.00,Wunderground v.1.15,2013-01-10 04:29:00,
2013-01-09 23:39:00,43.6,37.5,30.10,NNW,338,10.0,10.0,79,0.00,,,0.00,Wunderground v.1.15,2013-01-10 04:39:00,
2013-01-09 23:49:00,43.4,37.3,30.11,WNW,287,10.0,10.0,79,0.00,,,0.00,Wunderground v.1.15,2013-01-10 04:49:00,
2013-01-09 23:59:00,43.3,37.2,30.11,WSW,255,9.0,11.0,79,0.00,,,0.00,Wunderground v.1.15,2013-01-10 04:59:00,